createdAt,value
2018-09-08T00:01:22.598Z,69.82
2018-09-08T00:03:51.323Z,70.16
2018-09-08T00:06:25.242Z,70.95
2018-09-08T00:08:53.912Z,71.10
2018-09-08T00:11:22.799Z,71.22
2018-09-08T00:13:51.485Z,72.33
2018-09-08T00:16:25.481Z,72.61
2018-09-08T00:18:59.311Z,72.41
2018-09-08T00:21:33.232Z,73.83
2018-09-08T00:24:06.984Z,73.24
2018-09-08T00:26:34.765Z,74.02
2018-09-08T00:29:35.034Z,74.19
2018-09-08T00:32:07.940Z,74.95
2018-09-08T00:34:36.646Z,75.16
2018-09-08T00:37:05.340Z,74.74
2018-09-08T00:39:34.083Z,74.80
2018-09-08T00:42:02.692Z,75.09
2018-09-08T00:44:31.358Z,76.34
2018-09-08T00:46:59.987Z,76.01
2018-09-08T00:49:28.590Z,76.21
2018-09-08T00:51:57.348Z,76.43
2018-09-08T00:54:26.062Z,76.30
2018-09-08T00:56:54.678Z,76.56
2018-09-08T00:59:23.339Z,77.12
2018-09-08T01:01:51.995Z,76.53
2018-09-08T01:04:20.678Z,77.15
2018-09-08T01:06:49.307Z,77.31
2018-09-08T01:09:17.954Z,75.96
2018-09-08T01:11:46.668Z,76.37
2018-09-08T01:14:15.302Z,76.33
2018-09-08T01:16:44.006Z,77.71
2018-09-08T01:19:15.015Z,77.17
2018-09-08T01:21:44.346Z,77.89
2018-09-08T01:24:13.021Z,78.59
2018-09-08T01:26:41.684Z,78.39
2018-09-08T01:29:10.380Z,78.64
2018-09-08T01:31:39.132Z,78.54
2018-09-08T01:34:07.795Z,78.75
2018-09-08T01:36:36.466Z,78.93
2018-09-08T01:39:06.275Z,79.14
2018-09-08T01:41:34.987Z,80.30
2018-09-08T01:44:03.681Z,79.53
2018-09-08T01:49:07.252Z,78.60
2018-09-08T01:51:35.968Z,79.23
2018-09-08T01:54:04.599Z,78.03
2018-09-08T01:56:33.259Z,78.22
2018-09-08T01:59:01.896Z,78.89
2018-09-08T02:01:30.548Z,79.46
2018-09-08T02:03:59.194Z,77.98
2018-09-08T02:06:27.895Z,77.38
2018-09-08T02:08:56.566Z,78.15
2018-09-08T02:11:25.281Z,77.36
2018-09-08T02:13:53.899Z,77.21
2018-09-08T02:16:22.592Z,77.23
2018-09-08T02:18:51.254Z,78.51
2018-09-08T02:21:19.978Z,78.28
2018-09-08T02:23:48.697Z,78.12
2018-09-08T02:26:17.333Z,78.08
2018-09-08T02:28:46.032Z,78.86
2018-09-08T02:31:14.643Z,77.99
2018-09-08T02:33:43.335Z,77.93
2018-09-08T02:36:12.063Z,77.88
2018-09-08T02:38:40.814Z,78.10
2018-09-08T02:41:09.483Z,78.66
2018-09-08T02:43:38.160Z,79.87
2018-09-08T02:46:06.926Z,80.74
2018-09-08T02:48:35.615Z,81.51
2018-09-08T02:51:02.984Z,81.05
2018-09-08T02:53:30.375Z,81.99
2018-09-08T02:55:57.735Z,82.28
2018-09-08T02:58:25.125Z,83.07
2018-09-08T03:00:52.546Z,82.35
2018-09-08T03:03:19.936Z,83.25
2018-09-08T03:05:47.299Z,83.03
2018-09-08T03:08:14.633Z,83.98
2018-09-08T03:10:41.982Z,83.56
2018-09-08T03:13:09.336Z,83.08
2018-09-08T03:15:36.691Z,83.93
2018-09-08T03:18:04.155Z,83.04
2018-09-08T03:20:31.506Z,82.46
2018-09-08T03:22:58.893Z,82.40
2018-09-08T03:25:26.255Z,82.94
2018-09-08T03:27:53.655Z,82.58
2018-09-08T03:30:21.007Z,82.42
2018-09-08T03:32:48.362Z,82.17
2018-09-08T03:35:15.832Z,82.53
2018-09-08T03:37:43.202Z,82.96
2018-09-08T03:40:10.535Z,83.79
2018-09-08T03:42:37.906Z,82.91
2018-09-08T03:45:05.263Z,82.70
2018-09-08T03:47:32.620Z,82.79
2018-09-08T03:49:59.983Z,82.50
2018-09-08T03:52:27.351Z,82.80
2018-09-08T03:54:54.720Z,83.18
2018-09-08T03:57:22.070Z,83.43
2018-09-08T03:59:49.415Z,82.99
2018-09-08T04:02:16.767Z,82.90
2018-09-08T04:04:45.403Z,83.88
2018-09-08T04:07:14.046Z,83.55
2018-09-08T04:09:42.791Z,83.12
2018-09-08T04:12:11.451Z,82.23
2018-09-08T04:14:40.136Z,82.60
2018-09-08T04:17:08.810Z,81.23
2018-09-08T04:19:37.488Z,80.89
2018-09-08T04:22:06.146Z,81.15
2018-09-08T04:24:34.797Z,80.50
2018-09-08T04:27:03.487Z,80.74
2018-09-08T04:29:32.154Z,80.04
2018-09-08T04:32:00.828Z,79.43
2018-09-08T04:34:29.484Z,80.15
2018-09-08T04:36:58.122Z,80.69
2018-09-08T04:39:26.859Z,79.51
2018-09-08T04:41:55.487Z,79.00
2018-09-08T04:44:24.131Z,77.27
2018-09-08T04:46:52.798Z,76.83
2018-09-08T04:49:21.464Z,76.68
2018-09-08T04:51:50.060Z,76.18
2018-09-08T04:54:18.695Z,76.07
2018-09-08T04:56:47.396Z,77.03
2018-09-08T04:59:16.027Z,76.43
2018-09-08T05:01:44.828Z,76.11
2018-09-08T05:04:13.471Z,76.13
2018-09-08T05:06:42.137Z,76.97
2018-09-08T05:09:12.061Z,78.35
2018-09-08T05:11:40.719Z,79.21
2018-09-08T05:14:09.389Z,79.39
2018-09-08T05:16:38.143Z,80.43
2018-09-08T05:19:06.788Z,79.48
2018-09-08T05:21:35.451Z,79.75
2018-09-08T05:24:04.116Z,79.38
2018-09-08T05:26:32.849Z,79.12
2018-09-08T05:29:01.523Z,78.58
2018-09-08T05:31:30.208Z,78.84
2018-09-08T05:33:58.867Z,78.55
2018-09-08T05:36:28.239Z,76.44
2018-09-08T05:38:56.924Z,74.35
2018-09-08T05:41:25.620Z,72.08
2018-09-08T05:43:54.296Z,70.66
2018-09-08T05:46:23.079Z,70.04
2018-09-08T05:48:51.771Z,68.43
2018-09-08T05:51:20.493Z,66.27
2018-09-08T05:53:49.137Z,64.41
2018-09-08T05:56:17.836Z,63.49
2018-09-08T05:58:46.493Z,62.53
2018-09-08T06:01:15.151Z,61.47
2018-09-08T06:03:43.788Z,61.34
2018-09-08T06:06:12.445Z,60.42
2018-09-08T06:08:41.091Z,59.75
2018-09-08T06:11:10.738Z,59.29
2018-09-08T06:13:39.361Z,59.31
2018-09-08T06:16:08.136Z,60.90
2018-09-08T06:18:36.891Z,61.29
2018-09-08T06:21:05.607Z,59.86
2018-09-08T06:23:34.280Z,58.99
2018-09-08T06:26:02.990Z,57.53
2018-09-08T06:28:31.739Z,58.49
2018-09-08T06:31:00.514Z,58.51
2018-09-08T06:33:29.147Z,58.57
2018-09-08T06:35:57.896Z,57.14
2018-09-08T06:38:26.603Z,55.61
2018-09-08T06:40:55.339Z,56.98
2018-09-08T06:43:24.087Z,56.45
2018-09-08T06:45:52.787Z,55.57
2018-09-08T06:48:21.455Z,54.05
2018-09-08T06:50:50.141Z,52.77
2018-09-08T06:53:18.869Z,52.26
2018-09-08T06:55:47.568Z,52.43
2018-09-08T06:58:16.196Z,51.80
2018-09-08T07:00:45.101Z,52.36
2018-09-08T07:03:13.798Z,49.88
2018-09-08T07:05:42.438Z,49.75
2018-09-08T07:08:11.070Z,49.37
2018-09-08T07:10:39.715Z,51.37
2018-09-08T07:13:08.550Z,52.86
2018-09-08T07:15:37.240Z,50.02
2018-09-08T07:18:06.107Z,49.68
2018-09-08T07:20:34.869Z,50.52
2018-09-08T07:23:03.622Z,51.05
2018-09-08T07:25:33.019Z,49.80
2018-09-08T07:28:02.460Z,49.08
2018-09-08T07:30:31.498Z,48.36
2018-09-08T07:33:00.370Z,47.12
2018-09-08T07:35:29.014Z,47.48
2018-09-08T07:37:57.714Z,47.65
2018-09-08T07:40:26.367Z,46.90
2018-09-08T07:42:55.025Z,46.86
2018-09-08T07:45:23.656Z,45.96
2018-09-08T07:47:52.371Z,43.79
2018-09-08T07:50:21.014Z,46.02
2018-09-08T07:52:49.680Z,47.00
2018-09-08T07:55:18.388Z,49.57
2018-09-08T07:57:47.165Z,49.89
2018-09-08T08:00:15.840Z,50.66
2018-09-08T08:02:44.516Z,48.84
2018-09-08T08:05:13.163Z,49.03
2018-09-08T08:07:41.823Z,47.63
2018-09-08T08:10:10.576Z,47.92
2018-09-08T08:12:39.228Z,47.60
2018-09-08T08:15:08.106Z,46.70
2018-09-08T08:17:36.803Z,47.05
2018-09-08T08:20:05.521Z,46.84
2018-09-08T08:22:34.179Z,45.79
2018-09-08T08:25:02.886Z,45.46
2018-09-08T08:27:31.511Z,47.22
2018-09-08T08:30:00.211Z,46.12
2018-09-08T08:32:28.858Z,45.11
2018-09-08T08:34:57.475Z,44.85
2018-09-08T08:37:26.180Z,44.60
2018-09-08T08:39:54.860Z,43.56
2018-09-08T08:42:23.551Z,43.62
2018-09-08T08:44:52.229Z,43.24
2018-09-08T08:47:20.896Z,43.37
2018-09-08T08:51:00.354Z,43.81
2018-09-08T08:53:38.924Z,44.32
2018-09-08T08:56:07.645Z,42.27
2018-09-08T08:58:36.316Z,43.13
2018-09-08T09:01:04.980Z,43.15
2018-09-08T09:03:33.701Z,42.35
2018-09-08T09:06:02.416Z,41.88
2018-09-08T09:08:31.673Z,41.38
2018-09-08T09:10:59.864Z,40.78
2018-09-08T09:13:28.815Z,39.80
2018-09-08T09:15:57.467Z,39.94
2018-09-08T09:19:41.748Z,39.52
2018-09-08T09:22:22.971Z,37.97
2018-09-08T09:24:59.904Z,38.16
2018-09-08T09:27:29.031Z,36.29
2018-09-08T09:29:58.081Z,38.19
2018-09-08T09:32:26.811Z,40.57
2018-09-08T09:34:55.798Z,42.38
2018-09-08T09:37:24.442Z,43.15
2018-09-08T09:39:53.800Z,43.89
2018-09-08T09:42:22.451Z,43.26
2018-09-08T09:44:51.087Z,42.30
2018-09-08T09:47:19.923Z,39.83
2018-09-08T09:49:48.627Z,39.87
2018-09-08T09:52:17.360Z,37.39
2018-09-08T09:54:46.009Z,38.71
2018-09-08T09:57:14.742Z,39.76
2018-09-08T09:59:43.411Z,40.49
2018-09-08T10:02:44.524Z,41.67
2018-09-08T10:05:21.441Z,42.04
2018-09-08T10:07:50.545Z,43.55
2018-09-08T10:10:22.500Z,43.34
2018-09-08T10:12:51.181Z,42.90
2018-09-08T10:15:19.845Z,42.05
2018-09-08T10:17:48.505Z,39.13
2018-09-08T10:20:18.531Z,38.56
2018-09-08T10:22:47.188Z,38.06
2018-09-08T10:25:17.180Z,38.30
2018-09-08T10:27:46.992Z,39.03
2018-09-08T10:30:16.055Z,40.59
2018-09-08T10:32:45.795Z,41.43
2018-09-08T10:35:14.656Z,42.54
2018-09-08T10:37:43.454Z,43.28
2018-09-08T10:40:12.954Z,43.14
2018-09-08T10:42:41.841Z,42.67
2018-09-08T10:45:10.674Z,42.90
2018-09-08T10:47:39.559Z,42.49
2018-09-08T10:50:09.136Z,39.81
2018-09-08T10:52:40.802Z,38.59
2018-09-08T10:55:09.483Z,37.70
2018-09-08T10:57:38.142Z,36.91
2018-09-08T11:00:07.490Z,37.75
2018-09-08T11:02:36.340Z,38.63
2018-09-08T11:05:04.900Z,38.38
2018-09-08T11:07:33.586Z,38.86
2018-09-08T11:10:02.305Z,38.46
2018-09-08T11:12:32.294Z,38.52
2018-09-08T11:15:00.954Z,38.94
2018-09-08T11:17:29.603Z,39.79
2018-09-08T11:19:58.294Z,40.22
2018-09-08T11:22:26.982Z,40.31
2018-09-08T11:24:55.679Z,41.83
2018-09-08T11:27:24.437Z,43.35
2018-09-08T11:29:53.159Z,42.99
2018-09-08T11:32:21.870Z,41.10
2018-09-08T11:34:50.530Z,38.56
2018-09-08T11:37:19.300Z,39.26
2018-09-08T11:39:47.984Z,41.45
2018-09-08T11:42:16.678Z,43.13
2018-09-08T11:44:45.395Z,45.41
2018-09-08T11:47:14.073Z,46.45
2018-09-08T11:49:42.827Z,46.00
2018-09-08T11:52:11.382Z,46.30
2018-09-08T11:54:40.295Z,48.33
2018-09-08T11:57:09.011Z,50.13
2018-09-08T11:59:37.766Z,50.69
2018-09-08T12:02:06.517Z,50.62
2018-09-08T12:04:35.226Z,49.98
2018-09-08T12:07:03.899Z,49.87
2018-09-08T12:09:32.606Z,52.04
2018-09-08T12:12:01.309Z,52.14
2018-09-08T12:14:30.086Z,52.77
2018-09-08T12:16:58.716Z,53.41
2018-09-08T12:19:27.386Z,53.93
2018-09-08T12:21:56.018Z,54.80
2018-09-08T12:24:25.559Z,57.74
2018-09-08T12:26:54.251Z,58.70
2018-09-08T12:29:22.930Z,60.39
2018-09-08T12:31:51.631Z,60.38
2018-09-08T12:34:20.389Z,63.11
2018-09-08T12:36:49.095Z,62.90
2018-09-08T12:39:17.763Z,60.78
2018-09-08T12:41:46.450Z,58.88
2018-09-08T12:44:15.134Z,59.24
2018-09-08T12:46:43.902Z,54.78
2018-09-08T12:49:12.586Z,51.78
2018-09-08T12:51:41.252Z,50.62
2018-09-08T12:54:09.907Z,49.83
2018-09-08T12:56:38.561Z,47.05
2018-09-08T12:59:07.275Z,45.65
2018-09-08T13:01:35.958Z,45.72
2018-09-08T13:04:04.759Z,44.40
2018-09-08T13:06:33.388Z,45.58
2018-09-08T13:09:02.151Z,46.31
2018-09-08T13:11:30.863Z,46.91
2018-09-08T13:13:59.514Z,44.82
2018-09-08T13:16:28.196Z,44.65
2018-09-08T13:18:56.891Z,44.09
2018-09-08T13:21:25.550Z,45.36
2018-09-08T13:23:54.228Z,46.25
2018-09-08T13:26:22.937Z,49.07
2018-09-08T13:28:51.589Z,49.34
2018-09-08T13:31:20.286Z,48.60
2018-09-08T13:33:49.024Z,48.59
2018-09-08T13:36:18.367Z,47.53
2018-09-08T13:38:47.030Z,46.47
2018-09-08T13:41:15.741Z,46.71
2018-09-08T13:43:44.428Z,46.16
2018-09-08T13:46:13.142Z,46.67
2018-09-08T13:48:41.890Z,46.73
2018-09-08T13:51:10.588Z,47.22
2018-09-08T13:53:39.242Z,47.10
2018-09-08T13:56:07.967Z,47.47
2018-09-08T13:58:36.573Z,46.37
2018-09-08T14:01:05.336Z,45.73
2018-09-08T14:03:34.020Z,45.36
2018-09-08T14:06:02.688Z,45.49
2018-09-08T14:08:31.410Z,45.27
2018-09-08T14:11:00.106Z,45.00
2018-09-08T14:13:28.759Z,44.76
2018-09-08T14:15:57.458Z,43.96
2018-09-08T14:18:26.171Z,43.94
2018-09-08T14:20:54.821Z,44.65
2018-09-08T14:23:23.545Z,44.89
2018-09-08T14:25:52.155Z,43.84
2018-09-08T14:28:20.937Z,44.01
2018-09-08T14:30:49.628Z,43.95
2018-09-08T14:33:18.325Z,44.44
2018-09-08T14:35:47.129Z,45.12
2018-09-08T14:38:15.831Z,44.46
2018-09-08T14:40:44.534Z,44.46
2018-09-08T14:43:13.240Z,44.80
2018-09-08T14:45:41.976Z,44.48
2018-09-08T14:48:10.725Z,44.67
2018-09-08T14:50:39.437Z,44.32
2018-09-08T14:53:08.320Z,44.40
2018-09-08T14:55:36.966Z,44.08
2018-09-08T14:58:05.681Z,44.39
2018-09-08T15:00:34.411Z,45.18
2018-09-08T15:03:03.126Z,45.37
2018-09-08T15:05:31.825Z,45.68
2018-09-08T15:08:00.606Z,46.01
2018-09-08T15:10:29.320Z,45.92
2018-09-08T15:12:57.992Z,46.16
2018-09-08T15:15:26.726Z,47.09
2018-09-08T15:17:55.452Z,47.51
2018-09-08T15:20:24.111Z,48.49
2018-09-08T15:22:52.774Z,47.67
2018-09-08T15:25:21.477Z,46.23
2018-09-08T15:27:50.133Z,45.60
2018-09-08T15:30:19.116Z,45.36
2018-09-08T15:32:47.891Z,46.25
2018-09-08T15:35:17.035Z,46.59
2018-09-08T15:37:46.131Z,45.63
2018-09-08T15:40:14.862Z,46.63
2018-09-08T15:42:44.435Z,46.26
2018-09-08T15:45:13.078Z,46.75
2018-09-08T15:47:41.807Z,46.56
2018-09-08T15:50:10.429Z,47.01
2018-09-08T15:52:39.189Z,47.96
2018-09-08T15:55:07.971Z,48.45
2018-09-08T15:57:36.680Z,47.43
2018-09-08T16:00:06.633Z,48.90
2018-09-08T16:02:35.421Z,50.56
2018-09-08T16:05:04.079Z,51.88
2018-09-08T16:07:32.743Z,52.77
2018-09-08T16:10:01.377Z,53.10
2018-09-08T16:12:30.024Z,54.57
2018-09-08T16:14:58.675Z,54.16
2018-09-08T16:17:27.470Z,54.41
2018-09-08T16:19:56.110Z,54.89
2018-09-08T16:22:24.878Z,55.07
2018-09-08T16:24:53.542Z,55.38
2018-09-08T16:27:22.328Z,56.33
2018-09-08T16:29:51.064Z,55.99
2018-09-08T16:32:19.914Z,57.04
2018-09-08T16:34:48.584Z,57.12
2018-09-08T16:37:17.340Z,57.10
2018-09-08T16:39:45.989Z,57.13
2018-09-08T16:42:15.054Z,57.52
2018-09-08T16:44:43.726Z,57.68
2018-09-08T16:47:12.431Z,56.76
2018-09-08T16:49:41.110Z,57.50
2018-09-08T16:52:09.943Z,57.53
2018-09-08T16:54:38.601Z,58.01
2018-09-08T16:57:07.258Z,58.08
2018-09-08T16:59:35.942Z,57.40
2018-09-08T17:02:05.138Z,57.40
2018-09-08T17:04:33.842Z,57.14
2018-09-08T17:07:02.479Z,57.54
2018-09-08T17:09:31.172Z,57.16
2018-09-08T17:11:59.822Z,57.66
2018-09-08T17:14:29.304Z,58.21
2018-09-08T17:16:58.024Z,58.35
2018-09-08T17:19:26.684Z,57.92
2018-09-08T17:21:55.356Z,58.66
2018-09-08T17:24:24.188Z,58.72
2018-09-08T17:26:52.855Z,59.14
2018-09-08T17:29:21.471Z,59.01
2018-09-08T17:31:50.155Z,59.49
2018-09-08T17:34:18.907Z,60.03
2018-09-08T17:36:47.586Z,60.04
2018-09-08T17:39:16.242Z,60.34
2018-09-08T17:41:44.907Z,61.40
2018-09-08T17:44:13.750Z,60.96
2018-09-08T17:46:42.718Z,61.88
2018-09-08T17:49:11.377Z,61.43
2018-09-08T17:51:40.157Z,61.32
2018-09-08T17:54:08.930Z,62.27
2018-09-08T17:56:37.586Z,62.35
2018-09-08T17:59:06.219Z,62.34
2018-09-08T18:01:34.858Z,63.15
2018-09-08T18:04:03.822Z,62.90
2018-09-08T18:06:33.031Z,63.35
2018-09-08T18:09:01.686Z,63.20
2018-09-08T18:11:30.464Z,63.60
2018-09-08T18:13:59.134Z,62.75
2018-09-08T18:16:28.514Z,63.71
2018-09-08T18:18:57.164Z,63.84
2018-09-08T18:21:25.924Z,63.74
2018-09-08T18:23:54.628Z,63.05
2018-09-08T18:26:23.739Z,63.06
2018-09-08T18:28:52.421Z,63.17
2018-09-08T18:31:21.145Z,63.09
2018-09-08T18:33:49.822Z,63.18
2018-09-08T18:36:18.535Z,63.12
2018-09-08T18:38:47.182Z,63.47
2018-09-08T18:41:15.915Z,63.56
2018-09-08T18:43:44.578Z,63.30
2018-09-08T18:46:13.231Z,62.38
2018-09-08T18:48:42.607Z,64.04
2018-09-08T18:51:11.358Z,64.28
2018-09-08T18:53:40.133Z,63.93
2018-09-08T18:56:09.516Z,64.18
2018-09-08T18:58:39.654Z,64.79
2018-09-08T19:01:08.318Z,65.03
2018-09-08T19:03:37.066Z,65.43
2018-09-08T19:06:06.003Z,65.11
2018-09-08T19:08:39.974Z,65.96
2018-09-08T19:11:08.628Z,66.22
2018-09-08T19:13:37.649Z,65.54
2018-09-08T19:16:06.305Z,66.39
2018-09-08T19:18:35.017Z,67.04
2018-09-08T19:21:03.710Z,67.16
2018-09-08T19:23:32.346Z,67.75
2018-09-08T19:26:01.075Z,68.05
2018-09-08T19:28:29.775Z,67.97
2018-09-08T19:30:58.466Z,69.08
2018-09-08T19:33:27.143Z,68.58
2018-09-08T19:35:55.798Z,69.47
2018-09-08T19:38:24.484Z,69.42
2018-09-08T19:40:53.154Z,69.31
2018-09-08T19:43:21.810Z,69.29
2018-09-08T19:45:50.555Z,69.52
2018-09-08T19:48:20.675Z,69.45
2018-09-08T19:50:49.454Z,68.88
2018-09-08T19:53:23.198Z,69.18
2018-09-08T19:55:51.998Z,69.29
2018-09-08T19:58:25.903Z,69.94
2018-09-08T20:00:54.582Z,69.85
2018-09-08T20:03:23.268Z,69.70
2018-09-08T20:05:51.930Z,70.30
2018-09-08T20:08:20.599Z,69.72
2018-09-08T20:10:49.283Z,70.66
2018-09-08T20:13:17.966Z,70.06
2018-09-08T20:15:46.637Z,69.92
2018-09-08T20:18:15.281Z,70.84
2018-09-08T20:20:43.982Z,71.03
2018-09-08T20:23:12.657Z,70.47
2018-09-08T20:25:41.349Z,71.30
2018-09-08T20:28:10.042Z,71.69
2018-09-08T20:30:38.735Z,71.20
2018-09-08T20:33:07.391Z,71.31
2018-09-08T20:35:36.056Z,72.05
2018-09-08T20:38:04.767Z,71.89
2018-09-08T20:40:33.441Z,71.75
2018-09-08T20:43:02.285Z,71.84
2018-09-08T20:45:30.986Z,72.14
2018-09-08T20:47:59.671Z,72.18
2018-09-08T20:50:29.007Z,73.12
2018-09-08T20:52:57.704Z,72.30
2018-09-08T20:55:26.390Z,73.33
2018-09-08T20:57:55.064Z,73.32
2018-09-08T21:00:23.742Z,73.29
2018-09-08T21:02:52.374Z,73.09
2018-09-08T21:05:21.100Z,72.64
2018-09-08T21:07:49.851Z,72.68
2018-09-08T21:10:18.534Z,73.25
2018-09-08T21:12:47.169Z,73.48
2018-09-08T21:15:15.801Z,73.18
2018-09-08T21:17:44.554Z,73.83
2018-09-08T21:20:13.243Z,73.71
2018-09-08T21:22:41.905Z,73.34
2018-09-08T21:25:10.578Z,73.34
2018-09-08T21:27:39.236Z,73.49
2018-09-08T21:30:08.043Z,73.60
2018-09-08T21:32:36.730Z,73.70
2018-09-08T21:35:05.407Z,73.33
2018-09-08T21:37:34.042Z,73.26
2018-09-08T21:40:02.774Z,74.00
2018-09-08T21:42:31.474Z,73.86
2018-09-08T21:45:00.134Z,73.33
2018-09-08T21:47:28.799Z,74.22
2018-09-08T21:49:57.470Z,73.59
2018-09-08T21:52:26.146Z,73.50
2018-09-08T21:54:54.949Z,73.65
2018-09-08T21:57:23.606Z,74.18
2018-09-08T21:59:52.272Z,74.21
2018-09-08T22:02:20.934Z,74.54
2018-09-08T22:04:49.567Z,74.81
2018-09-08T22:07:18.234Z,74.61
2018-09-08T22:09:46.947Z,74.18
2018-09-08T22:12:15.669Z,74.85
2018-09-08T22:14:44.394Z,74.24
2018-09-08T22:17:13.042Z,73.88
2018-09-08T22:19:42.111Z,74.14
2018-09-08T22:22:10.791Z,74.40
2018-09-08T22:24:39.479Z,74.17
2018-09-08T22:27:08.336Z,73.79
2018-09-08T22:29:37.015Z,74.33
2018-09-08T22:32:06.427Z,74.38
2018-09-08T22:34:35.076Z,74.08
2018-09-08T22:37:03.695Z,74.64
2018-09-08T22:39:32.320Z,73.96
2018-09-08T22:42:00.966Z,73.48
2018-09-08T22:44:29.620Z,73.58
2018-09-08T22:46:58.278Z,73.53
2018-09-08T22:49:26.919Z,73.29
2018-09-08T22:51:55.635Z,73.44
2018-09-08T22:54:24.423Z,73.87
2018-09-08T22:56:53.178Z,73.72
2018-09-08T22:59:21.826Z,73.83
2018-09-08T23:01:50.492Z,73.97
2018-09-08T23:04:19.147Z,73.57
2018-09-08T23:06:47.786Z,73.28
2018-09-08T23:09:16.508Z,73.30
2018-09-08T23:11:45.170Z,73.25
2018-09-08T23:14:13.904Z,73.35
2018-09-08T23:16:42.575Z,73.52
2018-09-08T23:19:11.195Z,73.72
2018-09-08T23:21:39.862Z,74.30
2018-09-08T23:24:08.578Z,73.64
2018-09-08T23:26:37.998Z,73.87
2018-09-08T23:29:06.663Z,74.39
2018-09-08T23:31:35.314Z,74.22
2018-09-08T23:34:04.004Z,74.23
2018-09-08T23:36:32.703Z,74.53
2018-09-08T23:39:01.385Z,74.58
2018-09-08T23:41:30.133Z,75.01
2018-09-08T23:43:58.779Z,74.83
2018-09-08T23:46:27.452Z,74.77
2018-09-08T23:48:56.107Z,74.68
2018-09-08T23:51:24.774Z,74.45
2018-09-08T23:53:53.451Z,74.80
2018-09-08T23:56:22.106Z,74.78
2018-09-08T23:58:50.742Z,74.62
